createdAt,value
2022-09-21T00:03:08.911Z,3.63
2022-09-21T00:08:14.386Z,3.50
2022-09-21T00:13:17.982Z,3.47
2022-09-21T00:18:19.771Z,3.70
2022-09-21T00:23:21.750Z,3.88
2022-09-21T00:28:23.514Z,3.50
2022-09-21T00:33:25.443Z,3.22
2022-09-21T00:38:27.169Z,3.85
2022-09-21T00:43:29.215Z,3.67
2022-09-21T00:48:31.451Z,5.38
2022-09-21T00:53:34.031Z,5.38
2022-09-21T00:58:41.995Z,4.78
2022-09-21T01:03:45.828Z,6.30
2022-09-21T01:08:53.706Z,7.68
2022-09-21T01:14:07.985Z,7.70
2022-09-21T01:19:50.841Z,8.57
2022-09-21T01:25:49.962Z,8.02
2022-09-21T01:30:54.118Z,8.95
2022-09-21T01:36:01.890Z,9.25
2022-09-21T01:41:07.136Z,9.38
2022-09-21T01:46:13.902Z,11.27
2022-09-21T01:51:18.476Z,8.55
2022-09-21T01:56:30.950Z,9.30
2022-09-21T02:01:39.175Z,8.02
2022-09-21T02:06:47.410Z,6.95
2022-09-21T02:11:49.214Z,5.45
2022-09-21T02:17:07.495Z,4.95
2022-09-21T02:22:21.244Z,4.80
2022-09-21T02:27:55.152Z,4.75
2022-09-21T02:33:13.275Z,4.60
2022-09-21T02:38:32.456Z,5.03
2022-09-21T02:43:39.248Z,6.43
2022-09-21T02:48:52.177Z,12.20
2022-09-21T02:53:55.315Z,12.25
2022-09-21T02:59:01.107Z,12.95
2022-09-21T03:04:03.227Z,18.55
2022-09-21T03:09:05.360Z,20.23
2022-09-21T03:14:08.656Z,23.75
2022-09-21T03:19:12.183Z,27.30
2022-09-21T03:24:13.887Z,34.38
2022-09-21T03:29:15.595Z,31.58
2022-09-21T03:34:17.304Z,29.65
2022-09-21T03:39:19.093Z,19.73
2022-09-21T03:44:20.814Z,13.40
2022-09-21T03:49:22.586Z,7.65
2022-09-21T03:54:25.571Z,6.18
2022-09-21T03:59:27.383Z,6.28
2022-09-21T04:04:29.107Z,6.05
2022-09-21T04:09:31.390Z,5.53
2022-09-21T04:14:33.687Z,7.05
2022-09-21T04:19:35.546Z,6.78
2022-09-21T04:24:38.039Z,6.60
2022-09-21T04:29:39.722Z,7.40
2022-09-21T04:34:41.438Z,6.20
2022-09-21T04:39:43.198Z,6.85
2022-09-21T04:44:44.953Z,10.23
2022-09-21T04:49:46.676Z,9.38
2022-09-21T04:54:48.443Z,6.82
2022-09-21T04:59:50.267Z,8.52
2022-09-21T05:04:51.991Z,8.82
2022-09-21T05:10:05.802Z,8.98
2022-09-21T05:15:08.743Z,6.57
2022-09-21T05:20:11.595Z,5.35
2022-09-21T05:25:13.332Z,4.82
2022-09-21T05:30:15.551Z,3.92
2022-09-21T05:35:29.247Z,3.70
2022-09-21T05:40:31.415Z,6.57
2022-09-21T05:45:33.466Z,3.97
2022-09-21T05:50:38.194Z,5.40
2022-09-21T05:55:45.827Z,4.80
2022-09-21T06:00:59.201Z,4.68
2022-09-21T06:06:00.997Z,4.60
2022-09-21T06:11:02.799Z,6.53
2022-09-21T06:16:05.478Z,4.88
2022-09-21T06:21:08.213Z,5.50
2022-09-21T06:26:10.073Z,5.60
2022-09-21T06:31:11.838Z,5.18
2022-09-21T06:36:14.880Z,4.95
2022-09-21T06:41:21.006Z,3.75
2022-09-21T06:46:23.206Z,3.88
2022-09-21T06:51:25.135Z,3.20
2022-09-21T06:56:26.956Z,3.83
2022-09-21T07:01:28.818Z,4.18
2022-09-21T07:06:30.948Z,3.78
2022-09-21T07:11:32.847Z,5.43
2022-09-21T07:16:34.996Z,4.70
2022-09-21T07:21:36.925Z,6.82
2022-09-21T07:26:38.814Z,5.15
2022-09-21T07:31:44.459Z,4.53
2022-09-21T07:36:46.196Z,4.63
2022-09-21T07:41:47.926Z,3.70
2022-09-21T07:46:49.880Z,2.65
2022-09-21T07:51:51.682Z,2.50
2022-09-21T07:57:11.852Z,2.30
2022-09-21T08:02:13.769Z,2.38
2022-09-21T08:07:15.994Z,2.08
2022-09-21T08:12:20.707Z,2.20
2022-09-21T08:17:24.594Z,2.38
2022-09-21T08:22:26.332Z,1.77
2022-09-21T08:27:29.032Z,1.88
2022-09-21T08:32:49.940Z,1.88
2022-09-21T08:37:54.202Z,1.95
2022-09-21T08:43:08.702Z,2.17
2022-09-21T08:48:29.078Z,1.98
2022-09-21T08:53:36.515Z,2.00
2022-09-21T08:58:41.118Z,1.85
2022-09-21T09:04:13.752Z,2.45
2022-09-21T09:09:33.835Z,1.65
2022-09-21T09:14:35.559Z,2.25
2022-09-21T09:19:56.118Z,1.88
2022-09-21T09:25:05.527Z,1.63
2022-09-21T09:30:20.763Z,1.60
2022-09-21T09:35:29.616Z,1.50
2022-09-21T09:40:48.660Z,1.40
2022-09-21T09:46:10.643Z,1.83
2022-09-21T09:51:14.327Z,1.20
2022-09-21T09:56:18.639Z,1.67
2022-09-21T10:01:43.626Z,2.13
2022-09-21T10:06:46.953Z,1.88
2022-09-21T10:11:49.558Z,1.77
2022-09-21T10:16:52.919Z,2.15
2022-09-21T10:22:04.144Z,1.88
2022-09-21T10:27:18.046Z,2.83
2022-09-21T10:32:26.492Z,3.03
2022-09-21T10:37:42.594Z,2.50
2022-09-21T10:42:44.876Z,2.90
2022-09-21T10:48:06.285Z,2.78
2022-09-21T10:53:19.188Z,3.17
2022-09-21T10:58:20.965Z,2.88
2022-09-21T11:03:44.255Z,2.45
2022-09-21T11:09:08.907Z,2.03
2022-09-21T11:14:45.579Z,2.20
2022-09-21T11:20:11.470Z,2.22
2022-09-21T11:26:00.808Z,2.10
2022-09-21T11:31:33.466Z,2.08
2022-09-21T11:37:11.031Z,2.42
2022-09-21T11:42:22.255Z,2.63
2022-09-21T11:47:42.354Z,2.38
2022-09-21T11:53:04.319Z,2.35
2022-09-21T11:58:21.897Z,3.22
2022-09-21T12:03:35.414Z,3.00
2022-09-21T12:08:45.991Z,3.00
2022-09-21T12:14:24.334Z,2.88
2022-09-21T12:19:33.964Z,2.30
2022-09-21T12:24:42.990Z,2.40
2022-09-21T12:29:53.334Z,2.20
2022-09-21T12:35:00.735Z,2.15
2022-09-21T12:40:14.236Z,2.70
2022-09-21T12:45:47.499Z,2.70
2022-09-21T12:51:05.108Z,2.67
2022-09-21T12:56:23.002Z,2.15
2022-09-21T13:01:43.684Z,2.00
2022-09-21T13:06:54.376Z,1.90
2022-09-21T13:12:06.532Z,2.47
2022-09-21T13:17:23.574Z,2.00
2022-09-21T13:22:35.180Z,1.88
2022-09-21T13:28:04.219Z,2.17
2022-09-21T13:33:25.934Z,2.67
2022-09-21T13:38:40.190Z,2.17
2022-09-21T13:43:53.338Z,2.28
2022-09-21T13:48:55.128Z,2.30
2022-09-21T13:53:58.006Z,2.00
2022-09-21T13:59:00.197Z,2.10
2022-09-21T14:04:27.139Z,2.72
2022-09-21T14:09:40.843Z,4.25
2022-09-21T14:14:43.260Z,4.00
2022-09-21T14:19:44.991Z,2.65
2022-09-21T14:24:51.141Z,2.72
2022-09-21T14:29:59.954Z,2.17
2022-09-21T14:35:11.332Z,2.90
2022-09-21T14:40:25.458Z,3.30
2022-09-21T14:45:50.413Z,2.92
2022-09-21T14:51:09.968Z,3.78
2022-09-21T14:56:35.796Z,2.78
2022-09-21T15:01:42.185Z,2.22
2022-09-21T15:07:47.623Z,2.70
2022-09-21T15:13:21.833Z,2.80
2022-09-21T15:18:25.682Z,3.05
2022-09-21T15:23:39.256Z,3.90
2022-09-21T15:29:08.751Z,3.55
2022-09-21T15:34:15.291Z,5.72
2022-09-21T15:39:25.101Z,5.20
2022-09-21T15:44:33.448Z,6.45
2022-09-21T15:49:36.275Z,5.28
2022-09-21T15:54:46.708Z,5.25
2022-09-21T15:59:48.507Z,4.50
2022-09-21T16:04:52.576Z,4.00
2022-09-21T16:09:55.018Z,4.30
2022-09-21T16:15:24.493Z,6.22
2022-09-21T16:20:42.318Z,5.35
2022-09-21T16:25:52.644Z,4.65
2022-09-21T16:30:56.238Z,4.65
2022-09-21T16:35:58.848Z,4.38
2022-09-21T16:41:02.538Z,4.18
2022-09-21T16:46:06.091Z,4.43
2022-09-21T16:51:24.237Z,4.75
2022-09-21T16:56:26.174Z,6.85
2022-09-21T17:01:28.165Z,5.93
2022-09-21T17:06:30.711Z,4.90
2022-09-21T17:11:32.823Z,4.10
2022-09-21T17:16:34.527Z,4.72
2022-09-21T17:21:36.392Z,4.32
2022-09-21T17:26:38.268Z,4.68
2022-09-21T17:31:41.200Z,4.65
2022-09-21T17:36:43.002Z,4.45
2022-09-21T17:42:13.757Z,4.60
2022-09-21T17:47:28.796Z,4.38
2022-09-21T17:52:49.171Z,4.00
2022-09-21T17:58:33.697Z,4.47
2022-09-21T18:03:44.573Z,4.15
2022-09-21T18:08:46.807Z,4.03
2022-09-21T18:13:54.424Z,3.95
2022-09-21T18:19:00.715Z,3.47
2022-09-21T18:24:21.719Z,3.88
2022-09-21T18:29:39.910Z,4.43
2022-09-21T18:35:00.160Z,3.25
2022-09-21T18:40:26.254Z,3.35
2022-09-21T18:45:53.405Z,4.13
2022-09-21T18:51:36.509Z,4.03
2022-09-21T18:56:39.550Z,4.30
2022-09-21T19:01:43.135Z,4.50
2022-09-21T19:06:51.694Z,4.28
2022-09-21T19:12:03.611Z,4.53
2022-09-21T19:17:05.363Z,4.75
2022-09-21T19:22:35.896Z,4.28
2022-09-21T19:27:39.667Z,4.13
2022-09-21T19:32:48.763Z,4.22
2022-09-21T19:37:52.995Z,5.75
2022-09-21T19:43:06.983Z,4.75
2022-09-21T19:48:13.761Z,4.60
2022-09-21T19:53:34.504Z,4.60
2022-09-21T19:58:55.055Z,4.85
2022-09-21T20:03:56.921Z,4.38
2022-09-21T20:09:21.175Z,3.70
2022-09-21T20:14:49.428Z,3.60
2022-09-21T20:20:15.722Z,3.60
2022-09-21T20:25:30.545Z,4.05
2022-09-21T20:30:34.645Z,4.60
2022-09-21T20:35:36.554Z,3.78
2022-09-21T20:40:40.393Z,4.43
2022-09-21T20:45:49.319Z,3.97
2022-09-21T20:50:51.154Z,4.20
2022-09-21T20:55:55.113Z,4.03
2022-09-21T21:01:03.823Z,3.95
2022-09-21T21:06:10.884Z,4.20
2022-09-21T21:11:14.320Z,4.10
2022-09-21T21:16:16.091Z,4.15
2022-09-21T21:21:17.922Z,4.40
2022-09-21T21:26:19.958Z,3.80
2022-09-21T21:31:21.741Z,4.05
2022-09-21T21:36:23.484Z,3.88
2022-09-21T21:41:25.347Z,4.10
2022-09-21T21:46:27.321Z,4.20
2022-09-21T21:51:29.579Z,4.78
2022-09-21T21:56:31.643Z,4.40
2022-09-21T22:01:33.471Z,4.05
2022-09-21T22:06:37.103Z,4.95
2022-09-21T22:11:39.180Z,5.25
2022-09-21T22:16:40.983Z,4.65
2022-09-21T22:21:53.144Z,5.50
2022-09-21T22:26:55.067Z,3.83
2022-09-21T22:31:57.012Z,4.10
2022-09-21T22:36:59.286Z,3.88
2022-09-21T22:42:03.343Z,3.85
2022-09-21T22:47:05.320Z,4.03
2022-09-21T22:52:07.521Z,4.57
2022-09-21T22:57:09.260Z,4.28
2022-09-21T23:02:11.594Z,4.95
2022-09-21T23:07:14.198Z,4.75
2022-09-21T23:12:17.191Z,3.65
2022-09-21T23:17:18.939Z,5.18
2022-09-21T23:22:20.650Z,4.65
2022-09-21T23:27:22.435Z,4.00
2022-09-21T23:32:25.298Z,4.50
2022-09-21T23:37:28.263Z,3.35
2022-09-21T23:42:30.007Z,3.75
2022-09-21T23:47:31.757Z,3.53
2022-09-21T23:52:33.488Z,3.50
2022-09-21T23:57:35.238Z,3.53
